createdAt,value
2022-10-20T00:02:36.970Z,57.87
2022-10-20T00:05:24.625Z,57.74
2022-10-20T00:08:11.405Z,57.79
2022-10-20T00:10:59.705Z,57.77
2022-10-20T00:13:48.412Z,57.76
2022-10-20T00:16:39.257Z,57.54
2022-10-20T00:19:26.456Z,59.86
2022-10-20T00:22:13.917Z,60.44
2022-10-20T00:25:00.859Z,61.12
2022-10-20T00:27:49.369Z,61.18
2022-10-20T00:30:36.599Z,61.31
2022-10-20T00:33:23.962Z,60.65
2022-10-20T00:36:14.167Z,60.57
2022-10-20T00:39:02.624Z,59.58
2022-10-20T00:41:49.426Z,59.38
2022-10-20T00:44:53.836Z,59.59
2022-10-20T00:50:39.081Z,60.51
2022-10-20T00:53:29.596Z,60.46
2022-10-20T00:56:17.282Z,60.68
2022-10-20T00:59:05.155Z,60.89
2022-10-20T01:01:55.082Z,60.99
2022-10-20T01:04:42.929Z,60.10
2022-10-20T01:07:30.370Z,59.75
2022-10-20T01:10:18.301Z,59.74
2022-10-20T01:13:14.172Z,59.88
2022-10-20T01:16:08.087Z,59.73
2022-10-20T01:19:06.548Z,59.75
2022-10-20T01:22:22.886Z,59.32
2022-10-20T01:25:19.345Z,59.29
2022-10-20T01:28:13.522Z,58.85
2022-10-20T01:31:04.721Z,58.49
2022-10-20T01:33:57.115Z,58.35
2022-10-20T01:36:52.009Z,58.56
2022-10-20T01:39:44.168Z,58.64
2022-10-20T01:42:31.751Z,58.46
2022-10-20T01:45:24.698Z,58.55
2022-10-20T01:48:14.980Z,58.97
2022-10-20T01:51:04.057Z,58.69
2022-10-20T01:53:51.325Z,58.86
2022-10-20T01:56:46.612Z,58.79
2022-10-20T01:59:46.190Z,58.65
2022-10-20T02:02:49.987Z,59.79
2022-10-20T02:05:47.913Z,60.58
2022-10-20T02:08:41.619Z,59.93
2022-10-20T02:11:38.656Z,59.26
2022-10-20T02:14:26.061Z,58.88
2022-10-20T02:17:17.105Z,58.71
2022-10-20T02:20:07.929Z,58.70
2022-10-20T02:22:56.810Z,58.95
2022-10-20T02:25:43.915Z,58.77
2022-10-20T02:28:32.334Z,58.66
2022-10-20T02:31:20.436Z,58.69
2022-10-20T02:34:08.939Z,58.36
2022-10-20T02:36:59.267Z,58.24
2022-10-20T02:39:46.659Z,58.34
2022-10-20T02:42:33.490Z,58.50
2022-10-20T02:45:20.697Z,58.62
2022-10-20T02:48:09.243Z,58.47
2022-10-20T02:50:56.621Z,58.34
2022-10-20T02:53:45.208Z,58.11
2022-10-20T02:56:32.520Z,58.10
2022-10-20T02:59:19.608Z,58.07
2022-10-20T03:02:07.040Z,58.13
2022-10-20T03:04:54.377Z,58.32
2022-10-20T03:07:41.372Z,58.50
2022-10-20T03:10:29.950Z,58.28
2022-10-20T03:13:17.418Z,58.06
2022-10-20T03:16:04.449Z,58.15
2022-10-20T03:18:52.026Z,58.26
2022-10-20T03:21:38.741Z,58.16
2022-10-20T03:24:26.195Z,58.10
2022-10-20T03:27:15.053Z,58.20
2022-10-20T03:30:02.399Z,58.07
2022-10-20T03:32:49.122Z,58.13
2022-10-20T03:35:36.825Z,58.16
2022-10-20T03:38:27.907Z,58.35
2022-10-20T03:41:22.533Z,58.25
2022-10-20T03:44:12.785Z,58.34
2022-10-20T03:47:07.441Z,58.74
2022-10-20T03:49:59.796Z,59.75
2022-10-20T03:52:49.390Z,60.09
2022-10-20T03:55:43.504Z,59.94
2022-10-20T03:58:36.047Z,60.04
2022-10-20T04:01:21.821Z,60.04
2022-10-20T04:04:09.091Z,60.33
2022-10-20T04:06:55.961Z,60.52
2022-10-20T04:09:43.013Z,60.38
2022-10-20T04:12:29.868Z,59.59
2022-10-20T04:15:18.506Z,59.25
2022-10-20T04:18:06.875Z,59.05
2022-10-20T04:20:54.734Z,59.47
2022-10-20T04:23:41.741Z,61.05
2022-10-20T04:26:28.745Z,60.48
2022-10-20T04:29:15.815Z,59.86
2022-10-20T04:32:03.158Z,59.84
2022-10-20T04:34:51.388Z,59.83
2022-10-20T04:37:38.784Z,59.60
2022-10-20T04:40:26.661Z,59.50
2022-10-20T04:43:13.851Z,59.34
2022-10-20T04:46:05.508Z,59.18
2022-10-20T04:48:55.399Z,59.24
2022-10-20T04:51:43.444Z,60.80
2022-10-20T04:54:31.050Z,59.78
2022-10-20T04:57:17.972Z,59.62
2022-10-20T05:00:06.086Z,59.47
2022-10-20T05:02:52.803Z,59.25
2022-10-20T05:05:40.313Z,59.17
2022-10-20T05:08:28.531Z,59.04
2022-10-20T05:11:17.417Z,58.84
2022-10-20T05:14:04.729Z,58.75
2022-10-20T05:16:52.289Z,58.94
2022-10-20T05:19:39.089Z,58.94
2022-10-20T05:22:26.068Z,59.59
2022-10-20T05:28:21.565Z,59.20
2022-10-20T05:31:09.480Z,59.34
2022-10-20T05:33:57.731Z,59.93
2022-10-20T05:36:44.240Z,60.01
2022-10-20T05:39:31.773Z,60.57
2022-10-20T05:42:20.045Z,60.36
2022-10-20T05:45:08.623Z,59.85
2022-10-20T05:47:55.432Z,59.72
2022-10-20T05:50:42.375Z,59.70
2022-10-20T05:53:29.233Z,59.67
2022-10-20T05:56:19.121Z,59.36
2022-10-20T05:59:07.263Z,59.26
2022-10-20T06:01:54.268Z,59.20
2022-10-20T06:04:41.239Z,59.07
2022-10-20T06:07:28.077Z,59.16
2022-10-20T06:10:16.017Z,59.24
2022-10-20T06:13:02.651Z,59.18
2022-10-20T06:15:50.952Z,59.11
2022-10-20T06:18:38.888Z,59.09
2022-10-20T06:21:27.979Z,59.04
2022-10-20T06:24:16.517Z,59.48
2022-10-20T06:27:03.372Z,59.69
2022-10-20T06:29:50.456Z,59.82
2022-10-20T06:32:39.551Z,59.58
2022-10-20T06:35:26.576Z,59.70
2022-10-20T06:38:13.455Z,59.60
2022-10-20T06:41:02.689Z,59.44
2022-10-20T06:43:49.746Z,59.37
2022-10-20T06:46:38.060Z,59.47
2022-10-20T06:49:26.898Z,59.87
2022-10-20T06:52:14.778Z,59.52
2022-10-20T06:55:01.757Z,59.79
2022-10-20T06:57:48.869Z,60.08
2022-10-20T07:00:36.093Z,59.95
2022-10-20T07:03:22.955Z,60.29
2022-10-20T07:06:15.013Z,60.04
2022-10-20T07:09:03.927Z,60.25
2022-10-20T07:11:54.438Z,60.46
2022-10-20T07:14:41.175Z,60.64
2022-10-20T07:17:28.490Z,60.49
2022-10-20T07:20:15.527Z,60.10
2022-10-20T07:23:03.614Z,59.93
2022-10-20T07:25:50.546Z,59.94
2022-10-20T07:28:37.963Z,60.10
2022-10-20T07:31:26.992Z,60.16
2022-10-20T07:34:31.217Z,60.25
2022-10-20T07:37:18.293Z,60.05
2022-10-20T07:40:07.652Z,59.72
2022-10-20T07:42:54.590Z,59.97
2022-10-20T07:45:41.886Z,60.08
2022-10-20T07:48:28.935Z,60.05
2022-10-20T07:51:18.867Z,59.95
2022-10-20T07:54:08.431Z,59.69
2022-10-20T07:56:57.082Z,60.05
2022-10-20T07:59:44.090Z,59.95
2022-10-20T08:02:31.207Z,60.03
2022-10-20T08:05:18.828Z,60.00
2022-10-20T08:08:08.650Z,59.79
2022-10-20T08:10:59.282Z,59.80
2022-10-20T08:13:47.429Z,59.64
2022-10-20T08:16:39.214Z,59.71
2022-10-20T08:22:33.846Z,59.36
2022-10-20T08:25:21.167Z,59.52
2022-10-20T08:28:09.089Z,59.36
2022-10-20T08:31:02.782Z,59.49
2022-10-20T08:33:52.567Z,59.71
2022-10-20T08:36:39.712Z,59.49
2022-10-20T08:39:26.735Z,59.58
2022-10-20T08:42:13.952Z,59.56
2022-10-20T08:45:01.572Z,59.55
2022-10-20T08:47:53.127Z,59.60
2022-10-20T08:50:45.093Z,59.79
2022-10-20T08:53:40.399Z,59.36
2022-10-20T08:56:30.321Z,59.42
2022-10-20T08:59:26.290Z,59.42
2022-10-20T09:02:17.606Z,59.28
2022-10-20T09:05:07.893Z,58.96
2022-10-20T09:07:55.954Z,58.86
2022-10-20T09:10:47.309Z,58.83
2022-10-20T09:13:34.995Z,58.44
2022-10-20T09:16:40.828Z,58.44
2022-10-20T09:19:36.675Z,58.46
2022-10-20T09:22:29.891Z,58.54
2022-10-20T09:25:23.903Z,58.25
2022-10-20T09:28:22.408Z,58.00
2022-10-20T09:31:23.296Z,57.50
2022-10-20T09:34:25.308Z,57.46
2022-10-20T09:37:14.540Z,57.27
2022-10-20T09:40:04.067Z,57.78
2022-10-20T09:42:54.367Z,57.44
2022-10-20T09:45:53.339Z,57.41
2022-10-20T09:48:43.731Z,56.95
2022-10-20T09:51:32.166Z,57.48
2022-10-20T09:54:21.655Z,57.18
2022-10-20T09:57:19.283Z,57.12
2022-10-20T10:00:25.148Z,56.35
2022-10-20T10:03:22.898Z,56.65
2022-10-20T10:06:42.325Z,56.25
2022-10-20T10:09:34.470Z,54.19
2022-10-20T10:12:25.156Z,56.16
2022-10-20T10:15:27.833Z,56.32
2022-10-20T10:18:21.177Z,56.03
2022-10-20T10:21:10.123Z,56.08
2022-10-20T10:24:00.007Z,56.26
2022-10-20T10:26:53.152Z,56.16
2022-10-20T10:29:41.691Z,56.24
2022-10-20T10:32:31.210Z,56.38
2022-10-20T10:35:26.051Z,55.83
2022-10-20T10:38:15.537Z,55.46
2022-10-20T10:41:13.259Z,55.97
2022-10-20T10:44:06.211Z,55.60
2022-10-20T10:47:03.959Z,55.99
2022-10-20T10:50:03.879Z,55.38
2022-10-20T10:53:04.677Z,55.49
2022-10-20T10:56:00.938Z,55.45
2022-10-20T10:58:55.018Z,55.53
2022-10-20T11:01:59.706Z,55.46
2022-10-20T11:08:14.034Z,55.25
2022-10-20T11:11:05.828Z,55.26
2022-10-20T11:13:59.285Z,55.36
2022-10-20T11:16:57.346Z,55.42
2022-10-20T11:20:09.961Z,55.43
2022-10-20T11:23:18.037Z,54.17
2022-10-20T11:26:14.759Z,54.88
2022-10-20T11:29:04.060Z,54.57
2022-10-20T11:31:56.313Z,55.55
2022-10-20T11:34:52.915Z,55.74
2022-10-20T11:37:46.635Z,55.50
2022-10-20T11:40:39.728Z,55.55
2022-10-20T11:43:33.769Z,55.58
2022-10-20T11:46:26.772Z,55.48
2022-10-20T11:49:14.216Z,55.09
2022-10-20T11:52:41.354Z,54.99
2022-10-20T11:55:43.812Z,54.38
2022-10-20T11:58:54.251Z,54.41
2022-10-20T12:01:57.770Z,54.13
2022-10-20T12:05:03.509Z,54.30
2022-10-20T12:08:28.409Z,53.94
2022-10-20T12:11:23.027Z,53.29
2022-10-20T12:14:23.690Z,54.47
2022-10-20T12:17:34.392Z,53.30
2022-10-20T12:20:51.076Z,52.88
2022-10-20T12:24:02.311Z,53.03
2022-10-20T12:27:19.333Z,52.88
2022-10-20T12:30:42.918Z,52.54
2022-10-20T12:33:53.328Z,52.76
2022-10-20T12:36:40.890Z,53.61
2022-10-20T12:39:30.624Z,54.37
2022-10-20T12:42:24.142Z,53.80
2022-10-20T12:45:27.974Z,53.17
2022-10-20T12:48:23.785Z,52.60
2022-10-20T12:51:20.962Z,52.26
2022-10-20T12:54:19.624Z,51.87
2022-10-20T12:57:27.699Z,53.22
2022-10-20T13:00:48.291Z,51.07
2022-10-20T13:03:39.059Z,51.09
2022-10-20T13:06:43.453Z,53.05
2022-10-20T13:09:30.631Z,51.71
2022-10-20T13:12:29.035Z,53.23
2022-10-20T13:15:19.528Z,51.79
2022-10-20T13:18:16.567Z,52.74
2022-10-20T13:21:19.425Z,52.48
2022-10-20T13:24:17.086Z,52.62
2022-10-20T13:27:09.931Z,50.76
2022-10-20T13:29:58.481Z,52.06
2022-10-20T13:33:11.438Z,52.53
2022-10-20T13:36:06.584Z,51.95
2022-10-20T13:38:57.881Z,51.77
2022-10-20T13:41:57.169Z,52.42
2022-10-20T13:44:55.838Z,51.51
2022-10-20T13:48:07.209Z,51.57
2022-10-20T13:50:58.740Z,50.72
2022-10-20T13:53:48.269Z,52.31
2022-10-20T13:56:37.336Z,52.55
2022-10-20T13:59:26.114Z,52.60
2022-10-20T14:02:28.955Z,52.59
2022-10-20T14:05:22.633Z,51.81
2022-10-20T14:08:10.478Z,51.99
2022-10-20T14:11:01.063Z,52.71
2022-10-20T14:13:48.660Z,52.54
2022-10-20T14:16:37.715Z,52.59
2022-10-20T14:19:27.923Z,52.63
2022-10-20T14:22:23.238Z,52.72
2022-10-20T14:25:13.506Z,52.17
2022-10-20T14:28:08.268Z,52.64
2022-10-20T14:30:55.581Z,52.66
2022-10-20T14:33:47.092Z,52.68
2022-10-20T14:36:34.543Z,52.60
2022-10-20T14:39:31.959Z,52.61
2022-10-20T14:42:24.646Z,52.40
2022-10-20T14:45:23.369Z,52.51
2022-10-20T14:48:18.981Z,52.43
2022-10-20T14:51:31.136Z,52.39
2022-10-20T14:54:36.199Z,52.15
2022-10-20T14:57:46.292Z,52.48
2022-10-20T15:00:35.886Z,52.53
2022-10-20T15:03:24.035Z,52.89
2022-10-20T15:06:17.659Z,52.85
2022-10-20T15:09:05.785Z,52.91
2022-10-20T15:11:53.867Z,52.96
2022-10-20T15:14:42.794Z,53.00
2022-10-20T15:17:34.698Z,53.06
2022-10-20T15:20:39.651Z,53.08
2022-10-20T15:23:27.953Z,53.06
2022-10-20T15:26:16.029Z,53.30
2022-10-20T15:29:04.364Z,53.33
2022-10-20T15:31:51.206Z,53.38
2022-10-20T15:34:38.361Z,53.41
2022-10-20T15:37:25.449Z,53.42
2022-10-20T15:40:13.615Z,53.45
2022-10-20T15:43:00.658Z,53.55
2022-10-20T15:45:54.357Z,53.58
2022-10-20T15:48:42.206Z,53.66
2022-10-20T15:51:31.381Z,53.70
2022-10-20T15:54:21.561Z,53.71
2022-10-20T15:57:08.422Z,53.74
2022-10-20T15:59:55.331Z,53.75
2022-10-20T16:02:43.600Z,53.80
2022-10-20T16:05:30.986Z,53.97
2022-10-20T16:08:17.931Z,54.09
2022-10-20T16:11:04.952Z,54.22
2022-10-20T16:13:51.780Z,54.23
2022-10-20T16:16:38.555Z,54.22
2022-10-20T16:19:26.693Z,54.31
2022-10-20T16:22:13.686Z,54.27
2022-10-20T16:25:01.531Z,54.31
2022-10-20T16:27:48.733Z,54.29
2022-10-20T16:30:35.731Z,54.37
2022-10-20T16:33:23.162Z,54.38
2022-10-20T16:36:13.505Z,54.33
2022-10-20T16:39:00.939Z,54.29
2022-10-20T16:41:48.277Z,54.25
2022-10-20T16:44:35.795Z,54.25
2022-10-20T16:47:22.491Z,54.17
2022-10-20T16:50:10.302Z,54.16
2022-10-20T16:52:58.320Z,54.16
2022-10-20T16:55:53.822Z,54.17
2022-10-20T16:58:40.579Z,54.23
2022-10-20T17:01:27.497Z,54.17
2022-10-20T17:04:14.382Z,54.22
2022-10-20T17:07:01.446Z,54.22
2022-10-20T17:09:49.855Z,54.26
2022-10-20T17:12:37.177Z,54.33
2022-10-20T17:15:24.127Z,54.29
2022-10-20T17:18:11.732Z,54.33
2022-10-20T17:20:58.557Z,54.34
2022-10-20T17:23:46.809Z,54.38
2022-10-20T17:26:34.842Z,54.43
2022-10-20T17:29:23.638Z,54.40
2022-10-20T17:32:14.513Z,54.37
2022-10-20T17:35:08.733Z,54.34
2022-10-20T17:37:55.578Z,54.36
2022-10-20T17:40:43.368Z,54.39
2022-10-20T17:43:32.277Z,54.40
2022-10-20T17:46:21.978Z,54.42
2022-10-20T17:49:09.295Z,54.44
2022-10-20T17:51:56.449Z,54.46
2022-10-20T17:54:49.205Z,54.54
2022-10-20T17:57:36.709Z,54.51
2022-10-20T18:00:43.789Z,54.49
2022-10-20T18:03:32.525Z,54.57
2022-10-20T18:06:21.372Z,54.67
2022-10-20T18:09:11.828Z,54.75
2022-10-20T18:12:05.172Z,54.78
2022-10-20T18:14:52.121Z,55.01
2022-10-20T18:17:40.314Z,54.99
2022-10-20T18:20:32.192Z,55.04
2022-10-20T18:23:21.448Z,55.08
2022-10-20T18:26:11.370Z,55.01
2022-10-20T18:28:59.472Z,55.08
2022-10-20T18:31:48.261Z,55.07
2022-10-20T18:34:38.583Z,55.17
2022-10-20T18:37:25.952Z,55.26
2022-10-20T18:40:12.961Z,55.30
2022-10-20T18:43:01.487Z,55.26
2022-10-20T18:45:52.145Z,55.32
2022-10-20T18:48:41.405Z,55.39
2022-10-20T18:51:29.591Z,55.32
2022-10-20T18:54:18.186Z,55.28
2022-10-20T18:57:07.913Z,55.30
2022-10-20T18:59:55.020Z,55.36
2022-10-20T19:02:41.921Z,55.22
2022-10-20T19:05:29.465Z,55.23
2022-10-20T19:08:18.016Z,55.25
2022-10-20T19:11:05.862Z,55.26
2022-10-20T19:13:53.953Z,55.25
2022-10-20T19:16:44.848Z,55.23
2022-10-20T19:19:31.817Z,55.22
2022-10-20T19:22:20.199Z,55.25
2022-10-20T19:25:09.580Z,55.29
2022-10-20T19:27:56.836Z,55.30
2022-10-20T19:30:43.805Z,55.23
2022-10-20T19:33:31.066Z,55.28
2022-10-20T19:36:17.954Z,55.32
2022-10-20T19:39:06.956Z,55.31
2022-10-20T19:41:55.701Z,55.26
2022-10-20T19:44:42.705Z,55.39
2022-10-20T19:47:29.515Z,55.37
2022-10-20T19:50:16.929Z,55.46
2022-10-20T19:53:04.374Z,55.42
2022-10-20T19:55:52.536Z,55.52
2022-10-20T19:58:44.179Z,55.63
2022-10-20T20:01:34.202Z,55.76
2022-10-20T20:04:21.406Z,55.67
2022-10-20T20:07:08.351Z,55.74
2022-10-20T20:09:55.608Z,55.68
2022-10-20T20:12:42.653Z,55.68
2022-10-20T20:15:31.840Z,55.68
2022-10-20T20:18:19.018Z,55.84
2022-10-20T20:21:06.923Z,55.78
2022-10-20T20:24:00.070Z,55.96
2022-10-20T20:26:47.755Z,56.05
2022-10-20T20:29:34.900Z,56.19
2022-10-20T20:32:23.412Z,56.52
2022-10-20T20:35:10.866Z,56.56
2022-10-20T20:37:58.261Z,56.47
2022-10-20T20:40:47.040Z,56.45
2022-10-20T20:43:35.838Z,56.63
2022-10-20T20:46:24.643Z,56.87
2022-10-20T20:49:12.728Z,56.57
2022-10-20T20:51:59.779Z,57.01
2022-10-20T20:54:47.092Z,56.88
2022-10-20T20:57:33.953Z,56.78
2022-10-20T21:00:21.315Z,56.67
2022-10-20T21:03:08.325Z,56.89
2022-10-20T21:05:56.931Z,56.90
2022-10-20T21:08:45.275Z,56.83
2022-10-20T21:11:32.625Z,56.81
2022-10-20T21:14:19.594Z,56.87
2022-10-20T21:17:06.743Z,56.99
2022-10-20T21:19:54.634Z,57.01
2022-10-20T21:22:43.315Z,57.00
2022-10-20T21:25:30.223Z,57.11
2022-10-20T21:28:17.540Z,57.00
2022-10-20T21:31:06.099Z,57.04
2022-10-20T21:33:55.654Z,57.12
2022-10-20T21:36:42.558Z,56.96
2022-10-20T21:42:22.826Z,56.90
2022-10-20T21:45:11.239Z,56.93
2022-10-20T21:48:00.231Z,56.95
2022-10-20T21:50:47.542Z,56.96
2022-10-20T21:53:34.444Z,56.86
2022-10-20T21:56:22.842Z,56.85
2022-10-20T21:59:16.125Z,57.03
2022-10-20T22:02:03.466Z,57.18
2022-10-20T22:04:51.031Z,57.02
2022-10-20T22:07:38.119Z,56.97
2022-10-20T22:10:25.486Z,57.17
2022-10-20T22:13:13.726Z,57.20
2022-10-20T22:16:01.039Z,57.31
2022-10-20T22:18:47.893Z,57.27
2022-10-20T22:21:38.440Z,57.31
2022-10-20T22:24:25.328Z,57.51
2022-10-20T22:27:25.019Z,57.47
2022-10-20T22:30:20.593Z,57.54
2022-10-20T22:33:07.755Z,57.46
2022-10-20T22:35:54.810Z,57.53
2022-10-20T22:38:41.887Z,57.42
2022-10-20T22:41:28.885Z,57.41
2022-10-20T22:44:15.889Z,57.43
2022-10-20T22:47:04.308Z,57.38
2022-10-20T22:49:51.348Z,57.14
2022-10-20T22:52:38.033Z,57.25
2022-10-20T22:55:25.294Z,57.22
2022-10-20T22:58:11.955Z,57.08
2022-10-20T23:00:58.884Z,57.16
2022-10-20T23:03:47.621Z,57.09
2022-10-20T23:06:34.999Z,57.05
2022-10-20T23:09:21.798Z,57.11
2022-10-20T23:12:09.162Z,57.17
2022-10-20T23:14:56.134Z,57.11
2022-10-20T23:17:43.446Z,57.18
2022-10-20T23:20:31.565Z,57.09
2022-10-20T23:23:18.526Z,56.96
2022-10-20T23:26:06.275Z,56.92
2022-10-20T23:28:53.586Z,56.90
2022-10-20T23:31:40.393Z,56.92
2022-10-20T23:34:28.175Z,56.87
2022-10-20T23:37:19.610Z,56.79
2022-10-20T23:40:08.526Z,56.73
2022-10-20T23:42:55.535Z,56.61
2022-10-20T23:45:44.310Z,56.56
2022-10-20T23:48:31.625Z,56.48
2022-10-20T23:51:18.861Z,56.30
2022-10-20T23:54:06.971Z,56.29
2022-10-20T23:56:54.000Z,56.25
2022-10-20T23:59:41.022Z,56.20
